sensor_id;sensor_type;location;lat;lon;timestamp;temperature;humidity
4647;DHT22;2336;47.822;7.564;2023-02-28T00:00:45;1.00;91.40
4647;DHT22;2336;47.822;7.564;2023-02-28T00:03:12;1.00;91.60
4647;DHT22;2336;47.822;7.564;2023-02-28T00:05:39;1.00;91.60
4647;DHT22;2336;47.822;7.564;2023-02-28T00:08:07;1.00;91.60
4647;DHT22;2336;47.822;7.564;2023-02-28T00:10:34;1.00;91.70
4647;DHT22;2336;47.822;7.564;2023-02-28T00:13:04;0.90;91.60
4647;DHT22;2336;47.822;7.564;2023-02-28T00:15:32;0.90;91.70
4647;DHT22;2336;47.822;7.564;2023-02-28T00:17:59;0.90;91.80
4647;DHT22;2336;47.822;7.564;2023-02-28T00:20:26;0.90;91.90
4647;DHT22;2336;47.822;7.564;2023-02-28T00:22:53;0.80;91.90
4647;DHT22;2336;47.822;7.564;2023-02-28T00:25:21;0.80;92.00
4647;DHT22;2336;47.822;7.564;2023-02-28T00:27:49;0.80;92.10
4647;DHT22;2336;47.822;7.564;2023-02-28T00:30:19;0.80;92.10
4647;DHT22;2336;47.822;7.564;2023-02-28T00:32:46;0.70;92.20
4647;DHT22;2336;47.822;7.564;2023-02-28T00:35:13;0.70;92.20
4647;DHT22;2336;47.822;7.564;2023-02-28T00:37:40;0.60;92.30
4647;DHT22;2336;47.822;7.564;2023-02-28T00:40:08;0.60;92.30
4647;DHT22;2336;47.822;7.564;2023-02-28T00:42:36;0.60;92.30
4647;DHT22;2336;47.822;7.564;2023-02-28T00:45:03;0.50;92.40
4647;DHT22;2336;47.822;7.564;2023-02-28T00:47:32;0.50;92.50
4647;DHT22;2336;47.822;7.564;2023-02-28T00:50:00;0.50;92.50
4647;DHT22;2336;47.822;7.564;2023-02-28T00:52:26;0.50;92.50
4647;DHT22;2336;47.822;7.564;2023-02-28T00:54:53;0.50;92.60
4647;DHT22;2336;47.822;7.564;2023-02-28T00:57:20;0.50;92.50
4647;DHT22;2336;47.822;7.564;2023-02-28T00:59:46;0.50;92.70
4647;DHT22;2336;47.822;7.564;2023-02-28T01:02:13;0.40;92.50
4647;DHT22;2336;47.822;7.564;2023-02-28T01:04:41;0.40;92.50
4647;DHT22;2336;47.822;7.564;2023-02-28T01:07:08;0.40;92.50
4647;DHT22;2336;47.822;7.564;2023-02-28T01:09:35;0.40;92.60
4647;DHT22;2336;47.822;7.564;2023-02-28T01:12:02;0.40;92.70
4647;DHT22;2336;47.822;7.564;2023-02-28T01:14:28;0.40;92.60
4647;DHT22;2336;47.822;7.564;2023-02-28T01:16:55;0.40;92.60
4647;DHT22;2336;47.822;7.564;2023-02-28T01:19:22;0.30;92.60
4647;DHT22;2336;47.822;7.564;2023-02-28T01:21:50;0.30;92.80
4647;DHT22;2336;47.822;7.564;2023-02-28T01:24:17;0.30;92.80
4647;DHT22;2336;47.822;7.564;2023-02-28T01:26:43;0.30;92.80
4647;DHT22;2336;47.822;7.564;2023-02-28T01:29:10;0.30;92.90
4647;DHT22;2336;47.822;7.564;2023-02-28T01:31:37;0.20;93.00
4647;DHT22;2336;47.822;7.564;2023-02-28T01:34:04;0.20;92.90
4647;DHT22;2336;47.822;7.564;2023-02-28T01:36:31;0.20;93.00
4647;DHT22;2336;47.822;7.564;2023-02-28T01:38:59;0.20;93.10
4647;DHT22;2336;47.822;7.564;2023-02-28T01:41:28;0.20;93.20
4647;DHT22;2336;47.822;7.564;2023-02-28T01:44:02;0.20;93.30
4647;DHT22;2336;47.822;7.564;2023-02-28T01:46:34;0.30;93.40
4647;DHT22;2336;47.822;7.564;2023-02-28T01:49:05;0.20;93.30
4647;DHT22;2336;47.822;7.564;2023-02-28T01:51:37;0.20;93.50
4647;DHT22;2336;47.822;7.564;2023-02-28T01:54:10;0.20;93.50
4647;DHT22;2336;47.822;7.564;2023-02-28T01:56:41;0.30;93.60
4647;DHT22;2336;47.822;7.564;2023-02-28T01:59:11;0.30;93.60
4647;DHT22;2336;47.822;7.564;2023-02-28T02:01:38;0.30;93.70
4647;DHT22;2336;47.822;7.564;2023-02-28T02:04:05;0.30;93.70
4647;DHT22;2336;47.822;7.564;2023-02-28T02:06:35;0.30;93.60
4647;DHT22;2336;47.822;7.564;2023-02-28T02:09:03;0.30;93.70
4647;DHT22;2336;47.822;7.564;2023-02-28T02:11:34;0.30;93.80
4647;DHT22;2336;47.822;7.564;2023-02-28T02:14:12;0.30;93.80
4647;DHT22;2336;47.822;7.564;2023-02-28T02:16:52;0.30;93.90
4647;DHT22;2336;47.822;7.564;2023-02-28T02:19:41;0.30;93.90
4647;DHT22;2336;47.822;7.564;2023-02-28T02:22:38;0.30;94.10
4647;DHT22;2336;47.822;7.564;2023-02-28T02:25:22;0.30;94.00
4647;DHT22;2336;47.822;7.564;2023-02-28T02:28:25;0.30;94.00
4647;DHT22;2336;47.822;7.564;2023-02-28T02:31:27;0.30;94.00
4647;DHT22;2336;47.822;7.564;2023-02-28T02:34:19;0.30;94.20
4647;DHT22;2336;47.822;7.564;2023-02-28T02:36:53;0.30;94.30
4647;DHT22;2336;47.822;7.564;2023-02-28T02:39:30;0.30;94.70
4647;DHT22;2336;47.822;7.564;2023-02-28T02:42:00;0.30;95.10
4647;DHT22;2336;47.822;7.564;2023-02-28T02:44:31;0.30;95.40
4647;DHT22;2336;47.822;7.564;2023-02-28T02:47:05;0.30;95.60
4647;DHT22;2336;47.822;7.564;2023-02-28T02:49:36;0.20;95.80
4647;DHT22;2336;47.822;7.564;2023-02-28T02:52:06;0.20;95.60
4647;DHT22;2336;47.822;7.564;2023-02-28T02:54:36;0.10;95.50
4647;DHT22;2336;47.822;7.564;2023-02-28T02:57:06;0.10;95.60
4647;DHT22;2336;47.822;7.564;2023-02-28T02:59:35;0.10;96.00
4647;DHT22;2336;47.822;7.564;2023-02-28T03:02:06;0.10;96.30
4647;DHT22;2336;47.822;7.564;2023-02-28T03:04:40;0.10;96.30
4647;DHT22;2336;47.822;7.564;2023-02-28T03:07:08;0.00;96.20
4647;DHT22;2336;47.822;7.564;2023-02-28T03:09:35;0.00;96.50
4647;DHT22;2336;47.822;7.564;2023-02-28T03:12:02;-0.10;96.60
4647;DHT22;2336;47.822;7.564;2023-02-28T03:14:45;-0.10;96.90
4647;DHT22;2336;47.822;7.564;2023-02-28T03:17:29;-0.10;97.10
4647;DHT22;2336;47.822;7.564;2023-02-28T03:20:04;-0.10;97.30
4647;DHT22;2336;47.822;7.564;2023-02-28T03:22:44;-0.20;97.40
4647;DHT22;2336;47.822;7.564;2023-02-28T03:25:18;-0.20;97.50
4647;DHT22;2336;47.822;7.564;2023-02-28T03:27:54;-0.20;97.60
4647;DHT22;2336;47.822;7.564;2023-02-28T03:30:26;-0.30;97.70
4647;DHT22;2336;47.822;7.564;2023-02-28T03:32:58;-0.30;97.70
4647;DHT22;2336;47.822;7.564;2023-02-28T03:35:30;-0.30;97.80
4647;DHT22;2336;47.822;7.564;2023-02-28T03:38:02;-0.30;98.00
4647;DHT22;2336;47.822;7.564;2023-02-28T03:40:33;-0.30;98.20
4647;DHT22;2336;47.822;7.564;2023-02-28T03:43:03;-0.30;98.30
4647;DHT22;2336;47.822;7.564;2023-02-28T03:45:35;-0.30;98.40
4647;DHT22;2336;47.822;7.564;2023-02-28T03:48:07;-0.40;98.50
4647;DHT22;2336;47.822;7.564;2023-02-28T03:50:38;-0.30;98.70
4647;DHT22;2336;47.822;7.564;2023-02-28T03:53:11;-0.30;98.70
4647;DHT22;2336;47.822;7.564;2023-02-28T03:55:41;-0.30;98.80
4647;DHT22;2336;47.822;7.564;2023-02-28T03:58:14;-0.30;99.00
4647;DHT22;2336;47.822;7.564;2023-02-28T04:00:46;-0.30;99.00
4647;DHT22;2336;47.822;7.564;2023-02-28T04:03:13;-0.20;99.50
4647;DHT22;2336;47.822;7.564;2023-02-28T04:05:51;-0.20;98.90
4647;DHT22;2336;47.822;7.564;2023-02-28T04:08:18;-0.20;99.00
4647;DHT22;2336;47.822;7.564;2023-02-28T04:10:48;-0.20;99.10
4647;DHT22;2336;47.822;7.564;2023-02-28T04:13:18;-0.20;99.10
4647;DHT22;2336;47.822;7.564;2023-02-28T04:15:44;-0.10;99.30
4647;DHT22;2336;47.822;7.564;2023-02-28T04:18:11;-0.10;99.30
4647;DHT22;2336;47.822;7.564;2023-02-28T04:20:38;-0.10;99.30
4647;DHT22;2336;47.822;7.564;2023-02-28T04:23:06;-0.10;99.40
4647;DHT22;2336;47.822;7.564;2023-02-28T04:25:32;-0.10;99.50
4647;DHT22;2336;47.822;7.564;2023-02-28T04:27:59;-0.10;99.40
4647;DHT22;2336;47.822;7.564;2023-02-28T04:30:26;-0.10;99.40
4647;DHT22;2336;47.822;7.564;2023-02-28T04:32:53;-0.10;99.40
4647;DHT22;2336;47.822;7.564;2023-02-28T04:35:19;-0.10;99.60
4647;DHT22;2336;47.822;7.564;2023-02-28T04:37:46;-0.20;99.60
4647;DHT22;2336;47.822;7.564;2023-02-28T04:40:14;-0.10;99.90
4647;DHT22;2336;47.822;7.564;2023-02-28T04:42:41;-0.10;99.80
4647;DHT22;2336;47.822;7.564;2023-02-28T04:45:09;-0.10;99.90
4647;DHT22;2336;47.822;7.564;2023-02-28T04:47:36;-0.10;99.90
4647;DHT22;2336;47.822;7.564;2023-02-28T04:50:03;-0.10;99.90
4647;DHT22;2336;47.822;7.564;2023-02-28T04:52:30;-0.10;99.90
4647;DHT22;2336;47.822;7.564;2023-02-28T04:54:57;-0.10;99.90
4647;DHT22;2336;47.822;7.564;2023-02-28T04:57:25;-0.20;99.90
4647;DHT22;2336;47.822;7.564;2023-02-28T04:59:51;-0.20;99.90
4647;DHT22;2336;47.822;7.564;2023-02-28T05:02:18;-0.20;99.90
4647;DHT22;2336;47.822;7.564;2023-02-28T05:04:46;-0.20;99.90
4647;DHT22;2336;47.822;7.564;2023-02-28T05:07:13;-0.10;99.90
4647;DHT22;2336;47.822;7.564;2023-02-28T05:09:40;-0.20;99.90
4647;DHT22;2336;47.822;7.564;2023-02-28T05:12:07;-0.20;99.90
4647;DHT22;2336;47.822;7.564;2023-02-28T05:14:36;-0.20;99.90
4647;DHT22;2336;47.822;7.564;2023-02-28T05:17:03;-0.10;99.90
4647;DHT22;2336;47.822;7.564;2023-02-28T05:19:29;-0.10;99.90
4647;DHT22;2336;47.822;7.564;2023-02-28T05:21:56;-0.10;99.90
4647;DHT22;2336;47.822;7.564;2023-02-28T05:24:23;-0.20;99.90
4647;DHT22;2336;47.822;7.564;2023-02-28T05:26:51;-0.20;99.90
4647;DHT22;2336;47.822;7.564;2023-02-28T05:29:18;-0.20;99.90
4647;DHT22;2336;47.822;7.564;2023-02-28T05:31:46;-0.30;99.90
4647;DHT22;2336;47.822;7.564;2023-02-28T05:34:14;-0.40;99.90
4647;DHT22;2336;47.822;7.564;2023-02-28T05:36:42;-0.50;99.90
4647;DHT22;2336;47.822;7.564;2023-02-28T05:39:09;-0.50;99.90
4647;DHT22;2336;47.822;7.564;2023-02-28T05:41:41;-0.50;99.90
4647;DHT22;2336;47.822;7.564;2023-02-28T05:44:08;-0.50;99.90
4647;DHT22;2336;47.822;7.564;2023-02-28T05:46:35;-0.50;99.90
4647;DHT22;2336;47.822;7.564;2023-02-28T05:49:03;-0.60;99.90
4647;DHT22;2336;47.822;7.564;2023-02-28T05:51:30;-0.60;99.90
4647;DHT22;2336;47.822;7.564;2023-02-28T05:54:00;-0.60;99.90
4647;DHT22;2336;47.822;7.564;2023-02-28T05:56:27;-0.70;99.90
4647;DHT22;2336;47.822;7.564;2023-02-28T05:58:54;-0.80;99.90
4647;DHT22;2336;47.822;7.564;2023-02-28T06:01:24;-0.80;99.90
4647;DHT22;2336;47.822;7.564;2023-02-28T06:03:51;-0.80;99.90
4647;DHT22;2336;47.822;7.564;2023-02-28T06:06:19;-0.90;99.90
4647;DHT22;2336;47.822;7.564;2023-02-28T06:08:46;-0.90;99.90
4647;DHT22;2336;47.822;7.564;2023-02-28T06:11:13;-0.90;99.90
4647;DHT22;2336;47.822;7.564;2023-02-28T06:13:40;-0.90;99.90
4647;DHT22;2336;47.822;7.564;2023-02-28T06:16:08;-0.90;99.90
4647;DHT22;2336;47.822;7.564;2023-02-28T06:18:35;-0.90;99.90
4647;DHT22;2336;47.822;7.564;2023-02-28T06:21:02;-1.00;99.90
4647;DHT22;2336;47.822;7.564;2023-02-28T06:23:30;-0.90;99.90
4647;DHT22;2336;47.822;7.564;2023-02-28T06:25:57;-0.90;99.90
4647;DHT22;2336;47.822;7.564;2023-02-28T06:28:24;-1.00;99.90
4647;DHT22;2336;47.822;7.564;2023-02-28T06:30:52;-0.90;99.90
4647;DHT22;2336;47.822;7.564;2023-02-28T06:33:18;-0.90;99.90
4647;DHT22;2336;47.822;7.564;2023-02-28T06:35:47;-0.90;99.90
4647;DHT22;2336;47.822;7.564;2023-02-28T06:38:13;-0.90;99.90
4647;DHT22;2336;47.822;7.564;2023-02-28T06:40:41;-0.80;99.90
4647;DHT22;2336;47.822;7.564;2023-02-28T06:43:09;-0.90;99.90
4647;DHT22;2336;47.822;7.564;2023-02-28T06:45:42;-0.80;99.90
4647;DHT22;2336;47.822;7.564;2023-02-28T06:48:08;-0.80;99.90
4647;DHT22;2336;47.822;7.564;2023-02-28T06:50:35;-0.80;99.90
4647;DHT22;2336;47.822;7.564;2023-02-28T06:53:02;-0.80;99.90
4647;DHT22;2336;47.822;7.564;2023-02-28T06:55:29;-0.80;99.90
4647;DHT22;2336;47.822;7.564;2023-02-28T06:57:57;-0.80;99.90
4647;DHT22;2336;47.822;7.564;2023-02-28T07:00:24;-0.80;99.90
4647;DHT22;2336;47.822;7.564;2023-02-28T07:02:51;-0.80;99.90
4647;DHT22;2336;47.822;7.564;2023-02-28T07:05:19;-0.70;99.90
4647;DHT22;2336;47.822;7.564;2023-02-28T07:07:46;-0.70;99.90
4647;DHT22;2336;47.822;7.564;2023-02-28T07:10:13;-0.70;99.90
4647;DHT22;2336;47.822;7.564;2023-02-28T07:12:42;-0.70;99.90
4647;DHT22;2336;47.822;7.564;2023-02-28T07:15:10;-0.70;99.90
4647;DHT22;2336;47.822;7.564;2023-02-28T07:17:38;-0.70;99.90
4647;DHT22;2336;47.822;7.564;2023-02-28T07:20:05;-0.60;99.90
4647;DHT22;2336;47.822;7.564;2023-02-28T07:22:32;-0.60;99.90
4647;DHT22;2336;47.822;7.564;2023-02-28T07:24:59;-0.60;99.90
4647;DHT22;2336;47.822;7.564;2023-02-28T07:27:25;-0.60;99.90
4647;DHT22;2336;47.822;7.564;2023-02-28T07:29:52;-0.70;99.90
4647;DHT22;2336;47.822;7.564;2023-02-28T07:32:21;-0.70;99.90
4647;DHT22;2336;47.822;7.564;2023-02-28T07:34:48;-0.60;99.90
4647;DHT22;2336;47.822;7.564;2023-02-28T07:37:15;-0.60;99.90
4647;DHT22;2336;47.822;7.564;2023-02-28T07:39:42;-0.60;99.90
4647;DHT22;2336;47.822;7.564;2023-02-28T07:42:09;-0.60;99.90
4647;DHT22;2336;47.822;7.564;2023-02-28T07:44:37;-0.60;99.90
4647;DHT22;2336;47.822;7.564;2023-02-28T07:47:07;-0.60;99.90
4647;DHT22;2336;47.822;7.564;2023-02-28T07:49:36;-0.60;99.90
4647;DHT22;2336;47.822;7.564;2023-02-28T07:52:03;-0.50;99.90
4647;DHT22;2336;47.822;7.564;2023-02-28T07:54:30;-0.50;99.90
4647;DHT22;2336;47.822;7.564;2023-02-28T07:56:57;-0.60;99.90
4647;DHT22;2336;47.822;7.564;2023-02-28T07:59:24;-0.60;99.90
4647;DHT22;2336;47.822;7.564;2023-02-28T08:01:51;-0.50;99.90
4647;DHT22;2336;47.822;7.564;2023-02-28T08:04:17;-0.40;99.90
4647;DHT22;2336;47.822;7.564;2023-02-28T08:06:46;-0.30;99.90
4647;DHT22;2336;47.822;7.564;2023-02-28T08:09:12;-0.30;99.90
4647;DHT22;2336;47.822;7.564;2023-02-28T08:11:39;-0.30;99.90
4647;DHT22;2336;47.822;7.564;2023-02-28T08:14:06;-0.40;99.90
4647;DHT22;2336;47.822;7.564;2023-02-28T08:16:33;-0.30;99.90
4647;DHT22;2336;47.822;7.564;2023-02-28T08:18:59;-0.20;99.90
4647;DHT22;2336;47.822;7.564;2023-02-28T08:21:26;-0.20;99.90
4647;DHT22;2336;47.822;7.564;2023-02-28T08:23:54;-0.20;99.90
4647;DHT22;2336;47.822;7.564;2023-02-28T08:26:22;0.00;99.90
4647;DHT22;2336;47.822;7.564;2023-02-28T08:28:49;0.10;99.90
4647;DHT22;2336;47.822;7.564;2023-02-28T08:31:16;0.10;99.90
4647;DHT22;2336;47.822;7.564;2023-02-28T08:33:43;0.20;99.90
4647;DHT22;2336;47.822;7.564;2023-02-28T08:36:11;0.10;99.90
4647;DHT22;2336;47.822;7.564;2023-02-28T08:38:38;0.30;99.90
4647;DHT22;2336;47.822;7.564;2023-02-28T08:41:09;0.30;99.90
4647;DHT22;2336;47.822;7.564;2023-02-28T08:43:36;0.40;99.90
4647;DHT22;2336;47.822;7.564;2023-02-28T08:46:03;0.30;99.90
4647;DHT22;2336;47.822;7.564;2023-02-28T08:48:32;0.40;99.90
4647;DHT22;2336;47.822;7.564;2023-02-28T08:51:02;0.50;99.90
4647;DHT22;2336;47.822;7.564;2023-02-28T08:53:29;0.50;99.90
4647;DHT22;2336;47.822;7.564;2023-02-28T08:55:57;0.40;99.90
4647;DHT22;2336;47.822;7.564;2023-02-28T08:58:26;0.40;99.90
4647;DHT22;2336;47.822;7.564;2023-02-28T09:00:52;0.40;99.90
4647;DHT22;2336;47.822;7.564;2023-02-28T09:03:20;0.50;99.90
4647;DHT22;2336;47.822;7.564;2023-02-28T09:05:57;0.60;99.90
4647;DHT22;2336;47.822;7.564;2023-02-28T09:08:26;0.70;99.90
4647;DHT22;2336;47.822;7.564;2023-02-28T09:10:53;0.60;99.90
4647;DHT22;2336;47.822;7.564;2023-02-28T09:13:24;0.60;99.90
4647;DHT22;2336;47.822;7.564;2023-02-28T09:15:52;0.60;99.90
4647;DHT22;2336;47.822;7.564;2023-02-28T09:18:19;0.80;99.90
4647;DHT22;2336;47.822;7.564;2023-02-28T09:20:45;0.90;99.90
4647;DHT22;2336;47.822;7.564;2023-02-28T09:23:12;0.90;99.90
4647;DHT22;2336;47.822;7.564;2023-02-28T09:25:45;0.90;99.90
4647;DHT22;2336;47.822;7.564;2023-02-28T09:28:12;0.80;99.90
4647;DHT22;2336;47.822;7.564;2023-02-28T09:30:42;1.00;99.90
4647;DHT22;2336;47.822;7.564;2023-02-28T09:33:10;1.00;99.90
4647;DHT22;2336;47.822;7.564;2023-02-28T09:35:36;1.20;99.90
4647;DHT22;2336;47.822;7.564;2023-02-28T09:38:03;1.10;99.90
4647;DHT22;2336;47.822;7.564;2023-02-28T09:40:30;1.30;99.90
4647;DHT22;2336;47.822;7.564;2023-02-28T09:42:58;1.30;99.90
4647;DHT22;2336;47.822;7.564;2023-02-28T09:45:28;1.20;99.90
4647;DHT22;2336;47.822;7.564;2023-02-28T09:47:59;1.20;99.90
4647;DHT22;2336;47.822;7.564;2023-02-28T09:50:32;1.30;99.90
4647;DHT22;2336;47.822;7.564;2023-02-28T09:53:02;1.50;99.90
4647;DHT22;2336;47.822;7.564;2023-02-28T09:55:35;1.70;99.90
4647;DHT22;2336;47.822;7.564;2023-02-28T09:58:05;1.80;99.90
4647;DHT22;2336;47.822;7.564;2023-02-28T10:00:39;1.80;99.90
4647;DHT22;2336;47.822;7.564;2023-02-28T10:03:27;1.90;99.90
4647;DHT22;2336;47.822;7.564;2023-02-28T10:06:00;2.00;99.90
4647;DHT22;2336;47.822;7.564;2023-02-28T10:08:33;2.00;99.90
4647;DHT22;2336;47.822;7.564;2023-02-28T10:11:07;2.10;99.90
4647;DHT22;2336;47.822;7.564;2023-02-28T10:13:40;2.30;99.90
4647;DHT22;2336;47.822;7.564;2023-02-28T10:16:13;2.10;99.90
4647;DHT22;2336;47.822;7.564;2023-02-28T10:18:46;2.20;99.90
4647;DHT22;2336;47.822;7.564;2023-02-28T10:21:19;2.10;99.90
4647;DHT22;2336;47.822;7.564;2023-02-28T10:23:48;2.20;99.90
4647;DHT22;2336;47.822;7.564;2023-02-28T10:26:17;2.40;99.90
4647;DHT22;2336;47.822;7.564;2023-02-28T10:28:44;2.50;99.90
4647;DHT22;2336;47.822;7.564;2023-02-28T10:31:15;2.30;99.90
4647;DHT22;2336;47.822;7.564;2023-02-28T10:33:45;2.50;99.90
4647;DHT22;2336;47.822;7.564;2023-02-28T10:36:14;2.50;99.90
4647;DHT22;2336;47.822;7.564;2023-02-28T10:38:42;2.60;99.90
4647;DHT22;2336;47.822;7.564;2023-02-28T10:41:11;2.60;99.90
4647;DHT22;2336;47.822;7.564;2023-02-28T10:43:39;2.60;99.90
4647;DHT22;2336;47.822;7.564;2023-02-28T10:46:13;2.60;99.90
4647;DHT22;2336;47.822;7.564;2023-02-28T10:48:42;2.80;99.90
4647;DHT22;2336;47.822;7.564;2023-02-28T10:51:13;3.00;99.90
4647;DHT22;2336;47.822;7.564;2023-02-28T10:53:47;3.10;99.90
4647;DHT22;2336;47.822;7.564;2023-02-28T10:56:17;3.20;99.90
4647;DHT22;2336;47.822;7.564;2023-02-28T10:58:52;3.40;99.90
4647;DHT22;2336;47.822;7.564;2023-02-28T11:01:21;3.70;99.90
4647;DHT22;2336;47.822;7.564;2023-02-28T11:03:49;3.60;99.90
4647;DHT22;2336;47.822;7.564;2023-02-28T11:06:20;3.70;99.90
4647;DHT22;2336;47.822;7.564;2023-02-28T11:08:50;3.80;99.90
4647;DHT22;2336;47.822;7.564;2023-02-28T11:11:19;3.70;99.90
4647;DHT22;2336;47.822;7.564;2023-02-28T11:13:48;3.60;99.90
4647;DHT22;2336;47.822;7.564;2023-02-28T11:16:16;3.60;99.90
4647;DHT22;2336;47.822;7.564;2023-02-28T11:18:48;3.80;99.90
4647;DHT22;2336;47.822;7.564;2023-02-28T11:21:25;3.60;99.90
4647;DHT22;2336;47.822;7.564;2023-02-28T11:23:58;3.60;99.90
4647;DHT22;2336;47.822;7.564;2023-02-28T11:26:39;3.30;99.90
4647;DHT22;2336;47.822;7.564;2023-02-28T11:29:12;3.30;99.90
4647;DHT22;2336;47.822;7.564;2023-02-28T11:31:40;3.20;99.90
4647;DHT22;2336;47.822;7.564;2023-02-28T11:34:24;3.30;99.90
4647;DHT22;2336;47.822;7.564;2023-02-28T11:36:56;3.20;99.90
4647;DHT22;2336;47.822;7.564;2023-02-28T11:39:24;3.30;99.90
4647;DHT22;2336;47.822;7.564;2023-02-28T11:42:03;3.30;99.90
4647;DHT22;2336;47.822;7.564;2023-02-28T11:44:43;3.30;99.90
4647;DHT22;2336;47.822;7.564;2023-02-28T11:47:17;3.40;99.90
4647;DHT22;2336;47.822;7.564;2023-02-28T11:49:52;3.30;99.90
4647;DHT22;2336;47.822;7.564;2023-02-28T11:52:32;3.40;99.90
4647;DHT22;2336;47.822;7.564;2023-02-28T11:55:11;3.30;99.90
4647;DHT22;2336;47.822;7.564;2023-02-28T11:58:04;3.50;99.90
4647;DHT22;2336;47.822;7.564;2023-02-28T12:00:46;3.80;99.90
4647;DHT22;2336;47.822;7.564;2023-02-28T12:03:26;3.80;99.90
4647;DHT22;2336;47.822;7.564;2023-02-28T12:06:01;3.90;99.90
4647;DHT22;2336;47.822;7.564;2023-02-28T12:08:44;3.80;99.90
4647;DHT22;2336;47.822;7.564;2023-02-28T12:11:19;3.90;99.90
4647;DHT22;2336;47.822;7.564;2023-02-28T12:14:02;3.70;99.90
4647;DHT22;2336;47.822;7.564;2023-02-28T12:16:46;3.60;99.90
4647;DHT22;2336;47.822;7.564;2023-02-28T12:19:20;3.80;99.90
4647;DHT22;2336;47.822;7.564;2023-02-28T12:25:18;3.80;99.90
4647;DHT22;2336;47.822;7.564;2023-02-28T12:27:48;3.90;99.90
4647;DHT22;2336;47.822;7.564;2023-02-28T12:30:18;4.00;99.90
4647;DHT22;2336;47.822;7.564;2023-02-28T12:32:48;4.00;99.90
4647;DHT22;2336;47.822;7.564;2023-02-28T12:35:20;3.90;99.50
4647;DHT22;2336;47.822;7.564;2023-02-28T12:37:51;4.00;99.70
4647;DHT22;2336;47.822;7.564;2023-02-28T12:40:23;4.10;99.80
4647;DHT22;2336;47.822;7.564;2023-02-28T12:42:52;4.00;99.90
4647;DHT22;2336;47.822;7.564;2023-02-28T12:45:22;3.80;99.80
4647;DHT22;2336;47.822;7.564;2023-02-28T12:47:54;3.60;99.90
4647;DHT22;2336;47.822;7.564;2023-02-28T12:50:24;3.70;99.90
4647;DHT22;2336;47.822;7.564;2023-02-28T12:52:56;3.80;99.90
4647;DHT22;2336;47.822;7.564;2023-02-28T12:55:33;3.80;99.90
4647;DHT22;2336;47.822;7.564;2023-02-28T12:58:08;3.90;99.60
4647;DHT22;2336;47.822;7.564;2023-02-28T13:00:48;4.00;99.90
4647;DHT22;2336;47.822;7.564;2023-02-28T13:03:35;3.80;99.30
4647;DHT22;2336;47.822;7.564;2023-02-28T13:06:22;3.80;99.90
4647;DHT22;2336;47.822;7.564;2023-02-28T13:09:04;3.70;99.80
4647;DHT22;2336;47.822;7.564;2023-02-28T13:11:39;3.70;99.90
4647;DHT22;2336;47.822;7.564;2023-02-28T13:14:19;3.60;99.90
4647;DHT22;2336;47.822;7.564;2023-02-28T13:17:11;3.70;99.90
4647;DHT22;2336;47.822;7.564;2023-02-28T13:19:40;3.70;99.90
4647;DHT22;2336;47.822;7.564;2023-02-28T13:22:17;3.60;99.90
4647;DHT22;2336;47.822;7.564;2023-02-28T13:24:47;3.70;99.90
4647;DHT22;2336;47.822;7.564;2023-02-28T13:27:35;3.70;99.90
4647;DHT22;2336;47.822;7.564;2023-02-28T13:33:27;3.90;99.90
4647;DHT22;2336;47.822;7.564;2023-02-28T13:36:07;3.80;99.90
4647;DHT22;2336;47.822;7.564;2023-02-28T13:38:37;3.80;99.90
4647;DHT22;2336;47.822;7.564;2023-02-28T13:41:42;3.80;99.90
4647;DHT22;2336;47.822;7.564;2023-02-28T13:44:16;3.90;99.90
4647;DHT22;2336;47.822;7.564;2023-02-28T13:47:21;4.00;99.30
4647;DHT22;2336;47.822;7.564;2023-02-28T13:49:50;4.00;99.90
4647;DHT22;2336;47.822;7.564;2023-02-28T13:52:21;3.80;99.90
4647;DHT22;2336;47.822;7.564;2023-02-28T13:55:01;3.80;99.90
4647;DHT22;2336;47.822;7.564;2023-02-28T13:57:43;3.80;99.90
4647;DHT22;2336;47.822;7.564;2023-02-28T14:00:23;3.90;99.90
4647;DHT22;2336;47.822;7.564;2023-02-28T14:03:13;3.80;99.90
4647;DHT22;2336;47.822;7.564;2023-02-28T14:05:41;3.80;99.90
4647;DHT22;2336;47.822;7.564;2023-02-28T14:08:15;3.90;99.90
4647;DHT22;2336;47.822;7.564;2023-02-28T14:10:45;3.90;99.90
4647;DHT22;2336;47.822;7.564;2023-02-28T14:15:59;4.00;99.90
4647;DHT22;2336;47.822;7.564;2023-02-28T14:18:30;4.00;99.90
4647;DHT22;2336;47.822;7.564;2023-02-28T14:21:02;3.90;99.90
4647;DHT22;2336;47.822;7.564;2023-02-28T14:29:59;3.80;99.90
4647;DHT22;2336;47.822;7.564;2023-02-28T14:32:37;3.80;99.90
4647;DHT22;2336;47.822;7.564;2023-02-28T14:35:20;3.70;99.90
4647;DHT22;2336;47.822;7.564;2023-02-28T14:37:50;3.70;99.90
4647;DHT22;2336;47.822;7.564;2023-02-28T14:40:21;3.70;99.90
4647;DHT22;2336;47.822;7.564;2023-02-28T14:42:55;3.70;99.90
4647;DHT22;2336;47.822;7.564;2023-02-28T14:45:23;3.70;99.90
4647;DHT22;2336;47.822;7.564;2023-02-28T14:47:51;3.80;99.90
4647;DHT22;2336;47.822;7.564;2023-02-28T14:50:20;3.90;99.90
4647;DHT22;2336;47.822;7.564;2023-02-28T14:52:48;3.80;99.90
4647;DHT22;2336;47.822;7.564;2023-02-28T14:55:19;3.80;99.90
4647;DHT22;2336;47.822;7.564;2023-02-28T14:57:52;3.80;99.90
4647;DHT22;2336;47.822;7.564;2023-02-28T15:00:23;3.80;99.90
4647;DHT22;2336;47.822;7.564;2023-02-28T15:02:54;3.80;99.90
4647;DHT22;2336;47.822;7.564;2023-02-28T15:05:29;3.90;99.90
4647;DHT22;2336;47.822;7.564;2023-02-28T15:08:11;3.80;99.90
4647;DHT22;2336;47.822;7.564;2023-02-28T15:10:39;3.70;99.90
4647;DHT22;2336;47.822;7.564;2023-02-28T15:13:10;3.70;99.90
4647;DHT22;2336;47.822;7.564;2023-02-28T15:15:44;3.80;99.90
4647;DHT22;2336;47.822;7.564;2023-02-28T15:18:17;3.70;99.90
4647;DHT22;2336;47.822;7.564;2023-02-28T15:20:45;3.60;99.90
4647;DHT22;2336;47.822;7.564;2023-02-28T15:23:13;3.50;99.90
4647;DHT22;2336;47.822;7.564;2023-02-28T15:25:41;3.50;99.90
4647;DHT22;2336;47.822;7.564;2023-02-28T15:28:14;3.60;99.90
4647;DHT22;2336;47.822;7.564;2023-02-28T15:30:52;3.60;99.90
4647;DHT22;2336;47.822;7.564;2023-02-28T15:33:22;3.30;99.90
4647;DHT22;2336;47.822;7.564;2023-02-28T15:35:49;3.30;99.90
4647;DHT22;2336;47.822;7.564;2023-02-28T15:38:22;3.20;99.90
4647;DHT22;2336;47.822;7.564;2023-02-28T15:40:51;3.20;99.90
4647;DHT22;2336;47.822;7.564;2023-02-28T15:43:24;3.30;99.90
4647;DHT22;2336;47.822;7.564;2023-02-28T15:45:56;3.30;99.90
4647;DHT22;2336;47.822;7.564;2023-02-28T15:48:27;3.30;99.90
4647;DHT22;2336;47.822;7.564;2023-02-28T15:50:57;3.20;99.90
4647;DHT22;2336;47.822;7.564;2023-02-28T15:53:27;3.30;99.90
4647;DHT22;2336;47.822;7.564;2023-02-28T15:55:59;3.30;99.90
4647;DHT22;2336;47.822;7.564;2023-02-28T15:58:26;3.20;99.90
4647;DHT22;2336;47.822;7.564;2023-02-28T16:01:05;3.30;99.90
4647;DHT22;2336;47.822;7.564;2023-02-28T16:03:42;3.30;99.90
4647;DHT22;2336;47.822;7.564;2023-02-28T16:09:15;3.20;99.90
4647;DHT22;2336;47.822;7.564;2023-02-28T16:11:44;3.20;99.90
4647;DHT22;2336;47.822;7.564;2023-02-28T16:14:16;3.20;99.90
4647;DHT22;2336;47.822;7.564;2023-02-28T16:16:45;3.20;99.90
4647;DHT22;2336;47.822;7.564;2023-02-28T16:19:13;3.20;99.90
4647;DHT22;2336;47.822;7.564;2023-02-28T16:21:40;3.20;99.90
4647;DHT22;2336;47.822;7.564;2023-02-28T16:24:07;3.20;99.90
4647;DHT22;2336;47.822;7.564;2023-02-28T16:26:34;3.20;99.90
4647;DHT22;2336;47.822;7.564;2023-02-28T16:29:02;3.20;99.90
4647;DHT22;2336;47.822;7.564;2023-02-28T16:31:37;3.20;99.90
4647;DHT22;2336;47.822;7.564;2023-02-28T16:34:04;3.10;99.90
4647;DHT22;2336;47.822;7.564;2023-02-28T16:36:33;3.10;99.90
4647;DHT22;2336;47.822;7.564;2023-02-28T16:39:00;3.20;99.90
4647;DHT22;2336;47.822;7.564;2023-02-28T16:41:28;3.10;99.90
4647;DHT22;2336;47.822;7.564;2023-02-28T16:43:56;3.10;99.90
4647;DHT22;2336;47.822;7.564;2023-02-28T16:46:29;3.10;99.90
4647;DHT22;2336;47.822;7.564;2023-02-28T16:48:56;3.10;99.90
4647;DHT22;2336;47.822;7.564;2023-02-28T16:51:23;3.10;99.90
4647;DHT22;2336;47.822;7.564;2023-02-28T16:53:51;3.10;99.90